Time;durP1;ratioP1;P1;durP2;ratioP2;P2;SDS_P1;SDS_P2;PMS_P1;PMS_P2;Temp;Humidity;BMP_temperature;BMP_pressure;BME280_temperature;BME280_humidity;BME280_pressure;Samples;Min_cycle;Max_cycle;Signal;HPM_P1;HPM_P2
2023/08/08 00:02:02;;;;;;;83.28;52.05;;;17.20;87.70;;;;;;4954619;28;95431;-75
2023/08/08 00:04:28;;;;;;;82.35;52.17;;;17.20;88.00;;;;;;4973672;28;98421;-76
2023/08/08 00:06:54;;;;;;;83.60;52.47;;;17.10;87.30;;;;;;4942974;28;98313;-77
2023/08/08 00:09:19;;;;;;;81.38;52.00;;;17.10;87.50;;;;;;4941394;28;96475;-74
2023/08/08 00:11:45;;;;;;;81.65;52.30;;;17.10;87.90;;;;;;4946863;28;98725;-76
2023/08/08 00:14:10;;;;;;;81.13;52.22;;;17.10;88.60;;;;;;4925885;28;102099;-77
2023/08/08 00:16:36;;;;;;;81.43;52.22;;;17.10;87.60;;;;;;4941834;28;97540;-79
2023/08/08 00:19:02;;;;;;;81.15;52.10;;;17.10;88.40;;;;;;4941200;28;95434;-75
2023/08/08 00:21:28;;;;;;;81.55;52.00;;;17.10;88.20;;;;;;4969733;28;98389;-76
2023/08/08 00:23:54;;;;;;;82.38;51.95;;;17.10;89.40;;;;;;4961373;28;98482;-74
2023/08/08 00:26:19;;;;;;;83.57;52.22;;;17.10;89.10;;;;;;4965517;28;94949;-77
2023/08/08 00:28:45;;;;;;;82.15;52.45;;;17.10;87.30;;;;;;4969937;28;96219;-77
2023/08/08 00:31:10;;;;;;;82.45;52.30;;;17.10;89.20;;;;;;4957367;28;97927;-77
2023/08/08 00:33:36;;;;;;;82.22;52.38;;;17.10;88.40;;;;;;4947975;28;96997;-77
2023/08/08 00:36:01;;;;;;;83.10;52.47;;;17.10;90.00;;;;;;4951513;28;95953;-72
2023/08/08 00:38:27;;;;;;;82.18;52.40;;;17.10;87.00;;;;;;4955621;28;100567;-73
2023/08/08 00:40:53;;;;;;;83.32;52.30;;;17.00;87.00;;;;;;4929515;28;97932;-77
2023/08/08 00:43:18;;;;;;;81.55;52.22;;;17.00;87.20;;;;;;4949955;28;97938;-75
2023/08/08 00:45:44;;;;;;;82.32;52.33;;;17.00;87.30;;;;;;4967515;28;96016;-78
2023/08/08 00:48:11;;;;;;;84.15;52.53;;;17.00;87.60;;;;;;4967199;28;95378;-73
2023/08/08 00:50:37;;;;;;;81.93;52.28;;;17.00;87.50;;;;;;4936006;28;99580;-74
2023/08/08 00:53:04;;;;;;;82.57;52.22;;;17.00;88.10;;;;;;4965579;28;97228;-73
2023/08/08 00:55:31;;;;;;;83.25;52.28;;;17.00;89.90;;;;;;4950894;28;94953;-77
2023/08/08 00:57:56;;;;;;;81.47;52.33;;;17.00;88.00;;;;;;4947123;28;95061;-77
2023/08/08 01:00:22;;;;;;;83.15;52.40;;;17.00;87.20;;;;;;4961202;28;94976;-78
2023/08/08 01:02:48;;;;;;;83.00;52.50;;;16.90;87.80;;;;;;4952650;28;97377;-76
2023/08/08 01:05:13;;;;;;;81.55;52.42;;;16.90;88.10;;;;;;4944309;28;97371;-75
2023/08/08 01:07:57;;;;;;;81.43;52.33;;;16.90;88.70;;;;;;4936364;28;96829;-74
2023/08/08 01:10:37;;;;;;;81.55;52.72;;;16.90;89.80;;;;;;4955782;28;97280;-78
2023/08/08 01:13:10;;;;;;;83.50;52.63;;;16.90;87.10;;;;;;4949036;28;96234;-77
2023/08/08 01:15:37;;;;;;;82.78;52.30;;;16.90;87.10;;;;;;4944790;28;97205;-77
2023/08/08 01:18:07;;;;;;;82.13;52.63;;;16.90;87.90;;;;;;4947594;28;98561;-77
2023/08/08 01:20:33;;;;;;;82.07;52.63;;;16.80;88.40;;;;;;4956865;28;97884;-75
2023/08/08 01:23:28;;;;;;;82.78;52.83;;;16.80;87.80;;;;;;4951138;28;95197;-77
2023/08/08 01:25:55;;;;;;;81.65;52.42;;;16.80;88.10;;;;;;4952974;28;97365;-76
2023/08/08 01:28:24;;;;;;;81.40;52.63;;;16.80;88.70;;;;;;4948912;28;96014;-73
2023/08/08 01:30:51;;;;;;;82.10;52.80;;;16.80;88.90;;;;;;4958139;28;97429;-76
2023/08/08 01:33:17;;;;;;;81.93;52.45;;;16.80;87.70;;;;;;4954690;28;98672;-77
2023/08/08 01:35:47;;;;;;;82.97;52.47;;;16.80;87.80;;;;;;4927544;28;102704;-74
2023/08/08 01:38:34;;;;;;;82.53;52.63;;;16.80;88.10;;;;;;4922149;28;96167;-77
2023/08/08 01:41:01;;;;;;;82.78;52.53;;;16.70;88.90;;;;;;4942480;28;96539;-77
2023/08/08 01:43:28;;;;;;;82.55;52.72;;;16.80;88.90;;;;;;4931698;28;96053;-74
2023/08/08 01:45:55;;;;;;;82.13;52.38;;;16.70;88.80;;;;;;4964013;28;96348;-77
2023/08/08 01:48:20;;;;;;;82.47;52.53;;;16.70;87.50;;;;;;4952899;28;103138;-72
2023/08/08 01:50:46;;;;;;;81.53;52.28;;;16.70;87.80;;;;;;4964383;28;102379;-74
2023/08/08 01:53:12;;;;;;;83.78;52.78;;;16.70;87.30;;;;;;4941220;28;97823;-73
2023/08/08 01:55:37;;;;;;;82.50;52.42;;;16.70;87.10;;;;;;4971379;28;95784;-77
2023/08/08 01:58:03;;;;;;;83.57;52.28;;;16.70;86.00;;;;;;4956172;28;96268;-77
2023/08/08 02:00:29;;;;;;;80.72;52.22;;;16.70;86.90;;;;;;4940668;28;99789;-73
2023/08/08 02:02:54;;;;;;;82.30;52.65;;;16.70;86.20;;;;;;4942776;28;95087;-72
2023/08/08 02:05:20;;;;;;;83.05;52.17;;;16.70;86.30;;;;;;4954462;28;96916;-77
2023/08/08 02:07:46;;;;;;;82.38;52.42;;;16.70;86.20;;;;;;4957694;28;97457;-78
2023/08/08 02:10:11;;;;;;;82.90;52.50;;;16.70;87.00;;;;;;4967329;28;94339;-73
2023/08/08 02:12:37;;;;;;;81.13;52.80;;;16.60;86.90;;;;;;4944445;28;97510;-76
2023/08/08 02:15:04;;;;;;;82.10;52.78;;;16.60;87.70;;;;;;4956256;28;96078;-77
2023/08/08 02:17:30;;;;;;;85.35;53.00;;;16.60;87.10;;;;;;4920790;28;102896;-76
2023/08/08 02:19:55;;;;;;;82.07;52.30;;;16.60;88.40;;;;;;4954919;28;95463;-77
2023/08/08 02:22:22;;;;;;;82.50;52.20;;;16.60;87.30;;;;;;4925743;28;96098;-75
2023/08/08 02:24:48;;;;;;;82.15;52.33;;;16.60;87.70;;;;;;4940066;28;97408;-77
2023/08/08 02:27:14;;;;;;;82.38;52.28;;;16.60;87.90;;;;;;4946264;28;97380;-73
2023/08/08 02:29:39;;;;;;;86.63;52.95;;;16.60;87.40;;;;;;4973105;28;96539;-76
2023/08/08 02:32:05;;;;;;;83.00;52.47;;;16.50;86.80;;;;;;4946554;28;99478;-76
2023/08/08 02:34:31;;;;;;;84.00;52.78;;;16.50;87.40;;;;;;4972763;28;94690;-77
2023/08/08 02:36:57;;;;;;;83.32;52.13;;;16.50;87.20;;;;;;4961341;28;96193;-75
2023/08/08 02:39:22;;;;;;;83.25;52.65;;;16.50;87.20;;;;;;4946702;28;97770;-75
2023/08/08 02:41:48;;;;;;;81.93;52.42;;;16.50;88.20;;;;;;4956622;28;97875;-76
2023/08/08 02:44:13;;;;;;;84.00;53.03;;;16.50;90.40;;;;;;4976426;28;95128;-74
2023/08/08 02:46:39;;;;;;;83.82;52.30;;;16.50;87.60;;;;;;4959867;28;100463;-76
2023/08/08 02:49:05;;;;;;;84.57;52.47;;;16.50;87.00;;;;;;4952342;28;99891;-72
2023/08/08 02:51:30;;;;;;;83.88;52.55;;;16.50;87.50;;;;;;4969598;28;98461;-77
2023/08/08 02:53:56;;;;;;;84.68;52.55;;;16.50;87.30;;;;;;4938051;28;99634;-74
2023/08/08 02:56:22;;;;;;;82.03;52.47;;;16.50;89.20;;;;;;4964442;28;97560;-72
2023/08/08 02:58:47;;;;;;;81.78;52.15;;;16.40;86.90;;;;;;4933747;28;95247;-73
2023/08/08 03:01:14;;;;;;;85.68;52.72;;;16.40;86.70;;;;;;4947634;28;97304;-74
2023/08/08 03:03:40;;;;;;;81.43;52.20;;;16.40;87.10;;;;;;4945637;28;95870;-73
2023/08/08 03:06:06;;;;;;;86.20;52.33;;;16.40;87.50;;;;;;4937982;28;96845;-72
2023/08/08 03:08:31;;;;;;;83.07;52.70;;;16.40;86.80;;;;;;4955153;28;96045;-77
2023/08/08 03:10:57;;;;;;;84.35;52.45;;;16.40;87.20;;;;;;4953243;28;97159;-74
2023/08/08 03:13:22;;;;;;;81.82;52.38;;;16.40;87.90;;;;;;4957354;28;96913;-73
2023/08/08 03:15:48;;;;;;;83.72;52.58;;;16.40;88.10;;;;;;4957609;28;96256;-76
2023/08/08 03:18:14;;;;;;;81.68;52.33;;;16.30;88.00;;;;;;4969262;28;95346;-74
2023/08/08 03:20:40;;;;;;;83.07;52.55;;;16.40;87.80;;;;;;4966627;28;95802;-76
2023/08/08 03:23:05;;;;;;;82.15;52.22;;;16.30;88.50;;;;;;4961639;28;94951;-75
2023/08/08 03:25:31;;;;;;;82.63;52.33;;;16.30;87.20;;;;;;4955152;28;97721;-78
2023/08/08 03:27:57;;;;;;;81.75;52.08;;;16.40;87.80;;;;;;4958208;28;95277;-73
2023/08/08 03:30:22;;;;;;;84.03;52.47;;;16.30;88.20;;;;;;4944417;28;96934;-75
2023/08/08 03:32:48;;;;;;;83.72;52.22;;;16.30;87.50;;;;;;4938641;28;97336;-77
2023/08/08 03:35:14;;;;;;;82.80;52.35;;;16.30;88.10;;;;;;4923839;28;97401;-73
2023/08/08 03:37:40;;;;;;;82.60;52.15;;;16.30;88.10;;;;;;4963273;28;94598;-77
2023/08/08 03:40:07;;;;;;;81.47;52.13;;;16.30;88.40;;;;;;4958733;28;95990;-73
2023/08/08 03:42:33;;;;;;;81.65;52.08;;;16.30;88.30;;;;;;4971416;28;96250;-77
2023/08/08 03:44:59;;;;;;;83.72;52.17;;;16.30;87.60;;;;;;4936184;28;96449;-77
2023/08/08 03:47:25;;;;;;;81.80;52.30;;;16.30;87.60;;;;;;4950844;28;99124;-73
2023/08/08 03:49:50;;;;;;;84.40;52.30;;;16.30;87.80;;;;;;4949632;28;97816;-73
2023/08/08 03:52:16;;;;;;;84.22;52.53;;;16.30;88.10;;;;;;4940303;28;96736;-76
2023/08/08 03:54:43;;;;;;;81.97;52.00;;;16.30;88.00;;;;;;4947415;28;96364;-72
2023/08/08 03:57:08;;;;;;;81.75;52.00;;;16.30;88.60;;;;;;4941111;28;95511;-75
2023/08/08 03:59:34;;;;;;;82.78;52.10;;;16.30;88.80;;;;;;4938706;28;96289;-74
2023/08/08 04:02:00;;;;;;;82.57;52.00;;;16.30;88.30;;;;;;4939601;28;95321;-75
2023/08/08 04:04:25;;;;;;;81.55;51.90;;;16.20;88.70;;;;;;4938209;28;95935;-73
2023/08/08 04:06:51;;;;;;;82.63;52.05;;;16.30;88.70;;;;;;4930988;28;95999;-75
2023/08/08 04:09:16;;;;;;;81.80;52.08;;;16.20;89.10;;;;;;4920494;28;97251;-75
2023/08/08 04:11:42;;;;;;;80.72;52.00;;;16.20;89.00;;;;;;4930670;28;96953;-72
2023/08/08 04:14:08;;;;;;;81.28;51.85;;;16.20;88.70;;;;;;4943435;28;95541;-74
2023/08/08 04:16:33;;;;;;;81.43;52.13;;;16.20;89.10;;;;;;4943081;28;95696;-74
2023/08/08 04:18:59;;;;;;;82.43;52.20;;;16.20;90.10;;;;;;4942836;28;99391;-77
2023/08/08 04:21:27;;;;;;;83.30;52.33;;;16.20;89.50;;;;;;4959736;28;97718;-77
2023/08/08 04:23:52;;;;;;;80.70;52.03;;;16.20;89.00;;;;;;4949808;28;99514;-77
2023/08/08 04:26:18;;;;;;;82.63;51.90;;;16.20;89.90;;;;;;4936060;28;97482;-76
2023/08/08 04:28:44;;;;;;;83.43;52.45;;;16.20;89.30;;;;;;4928533;28;96390;-78
2023/08/08 04:31:09;;;;;;;82.40;52.13;;;16.20;89.70;;;;;;4948940;28;95600;-77
2023/08/08 04:33:35;;;;;;;82.40;52.17;;;16.20;89.20;;;;;;4939185;28;96354;-78
2023/08/08 04:36:00;;;;;;;84.25;52.25;;;16.20;88.90;;;;;;4957209;28;98204;-78
2023/08/08 04:38:26;;;;;;;82.75;52.25;;;16.20;89.80;;;;;;4953045;28;97072;-75
2023/08/08 04:40:52;;;;;;;81.63;52.33;;;16.10;88.70;;;;;;4927469;28;97791;-74
2023/08/08 04:43:17;;;;;;;84.35;52.38;;;16.20;89.00;;;;;;4937135;28;98204;-74
2023/08/08 04:45:43;;;;;;;80.15;51.90;;;16.20;90.80;;;;;;4952834;28;95391;-73
2023/08/08 04:48:08;;;;;;;81.90;52.28;;;16.20;91.20;;;;;;4945821;28;95976;-76
2023/08/08 04:50:34;;;;;;;81.43;52.22;;;16.20;90.70;;;;;;4935534;28;96446;-76
2023/08/08 04:52:59;;;;;;;83.15;52.15;;;16.20;89.90;;;;;;4917007;28;97137;-75
2023/08/08 04:55:25;;;;;;;84.53;52.85;;;16.20;89.30;;;;;;4950297;28;95809;-75
2023/08/08 04:57:50;;;;;;;83.20;52.33;;;16.20;89.10;;;;;;4948835;28;96588;-78
2023/08/08 05:00:16;;;;;;;83.82;52.50;;;16.20;89.40;;;;;;4944646;28;94495;-78
2023/08/08 05:02:42;;;;;;;83.20;52.70;;;16.20;88.80;;;;;;4941864;28;97635;-74
2023/08/08 05:05:09;;;;;;;83.18;52.28;;;16.20;89.10;;;;;;4948630;28;98933;-78
2023/08/08 05:07:37;;;;;;;81.38;52.28;;;16.20;89.40;;;;;;4952896;28;97544;-79
2023/08/08 05:10:09;;;;;;;83.47;52.17;;;16.20;89.70;;;;;;4941983;28;94837;-73
2023/08/08 05:12:34;;;;;;;81.70;52.05;;;16.20;88.80;;;;;;4948126;28;100949;-74
2023/08/08 05:15:00;;;;;;;81.18;52.03;;;16.30;90.10;;;;;;4960785;28;95630;-74
2023/08/08 05:17:26;;;;;;;85.03;52.30;;;16.30;89.20;;;;;;4944299;28;95921;-73
2023/08/08 05:19:51;;;;;;;81.90;52.30;;;16.30;90.60;;;;;;4951541;28;96318;-71
2023/08/08 05:22:17;;;;;;;81.35;52.13;;;16.20;90.20;;;;;;4949898;28;95738;-73
2023/08/08 05:24:42;;;;;;;82.07;52.25;;;16.30;92.10;;;;;;4955194;28;94249;-78
2023/08/08 05:27:09;;;;;;;80.93;52.13;;;16.30;90.40;;;;;;4945273;28;94818;-74
2023/08/08 05:29:37;;;;;;;82.68;52.42;;;16.30;90.10;;;;;;4958533;28;97763;-74
2023/08/08 05:32:06;;;;;;;81.72;52.45;;;16.30;90.10;;;;;;4959560;28;97233;-76
2023/08/08 05:34:32;;;;;;;81.30;52.22;;;16.30;90.70;;;;;;4964522;28;96097;-74
2023/08/08 05:36:58;;;;;;;83.13;52.38;;;16.30;89.80;;;;;;4941324;28;97410;-73
2023/08/08 05:39:23;;;;;;;86.00;52.72;;;16.30;90.00;;;;;;4933727;28;99251;-73
2023/08/08 05:41:49;;;;;;;82.75;52.55;;;16.30;90.00;;;;;;4952062;28;95701;-73
2023/08/08 05:44:14;;;;;;;83.68;52.97;;;16.30;90.00;;;;;;4948627;28;97687;-72
2023/08/08 05:46:40;;;;;;;82.18;52.70;;;16.40;96.60;;;;;;4942278;28;98362;-73
2023/08/08 05:49:06;;;;;;;83.93;52.53;;;16.50;96.20;;;;;;4935919;28;95678;-74
2023/08/08 05:51:32;;;;;;;81.47;52.45;;;16.40;95.80;;;;;;4953423;28;94937;-74
2023/08/08 05:53:58;;;;;;;86.25;52.75;;;16.50;94.70;;;;;;4935812;28;96031;-73
2023/08/08 05:56:23;;;;;;;83.00;52.72;;;16.50;97.30;;;;;;4907431;28;97024;-74
2023/08/08 05:58:49;;;;;;;82.82;52.47;;;16.50;97.50;;;;;;4915062;28;97021;-76
2023/08/08 06:01:14;;;;;;;82.45;52.35;;;16.50;94.10;;;;;;4894767;28;101894;-74
2023/08/08 06:03:40;;;;;;;85.43;52.53;;;16.50;96.80;;;;;;4913106;28;95446;-74
2023/08/08 06:06:06;;;;;;;83.07;52.78;;;16.60;97.20;;;;;;4912434;28;97966;-76
2023/08/08 06:08:32;;;;;;;86.28;52.90;;;16.60;95.00;;;;;;4923153;28;97994;-74
2023/08/08 06:10:58;;;;;;;84.50;52.85;;;16.60;94.80;;;;;;4918882;28;94636;-75
2023/08/08 06:13:23;;;;;;;85.43;53.38;;;16.70;95.50;;;;;;4922706;28;95628;-74
2023/08/08 06:15:49;;;;;;;82.88;52.75;;;16.70;93.40;;;;;;4915985;28;95582;-73
2023/08/08 06:18:16;;;;;;;83.82;52.85;;;16.70;91.40;;;;;;5000012;22;98798;-48
2023/08/08 06:20:41;;;;;;;82.38;52.65;;;16.70;92.50;;;;;;4948641;28;101374;-44
2023/08/08 06:23:07;;;;;;;81.82;52.22;;;16.80;92.10;;;;;;4956228;28;96871;-47
2023/08/08 06:25:32;;;;;;;83.85;52.33;;;16.70;89.80;;;;;;4956752;28;98414;-48
2023/08/08 06:27:58;;;;;;;84.05;52.83;;;16.80;90.30;;;;;;4950715;28;95845;-46
2023/08/08 06:30:23;;;;;;;86.32;52.60;;;16.80;92.80;;;;;;4960721;28;94713;-48
2023/08/08 06:32:49;;;;;;;81.82;52.38;;;16.80;92.40;;;;;;4957583;28;97553;-44
2023/08/08 06:35:16;;;;;;;82.35;52.75;;;16.90;92.90;;;;;;4940129;28;99491;-47
2023/08/08 06:37:42;;;;;;;84.88;52.95;;;16.90;92.90;;;;;;4948944;28;94909;-45
2023/08/08 06:40:10;;;;;;;85.35;53.00;;;16.90;93.00;;;;;;4947727;28;98602;-47
2023/08/08 06:42:36;;;;;;;85.40;53.13;;;16.90;92.40;;;;;;4958818;28;97846;-45
2023/08/08 06:45:02;;;;;;;82.70;52.33;;;17.00;93.70;;;;;;4942986;28;98054;-45
2023/08/08 06:47:27;;;;;;;84.70;53.17;;;17.00;92.40;;;;;;4944678;28;95387;-45
2023/08/08 06:49:53;;;;;;;86.25;53.25;;;17.00;93.50;;;;;;4956418;28;95312;-44
2023/08/08 06:52:18;;;;;;;86.30;53.42;;;17.10;93.60;;;;;;4955661;28;99266;-45
2023/08/08 06:54:44;;;;;;;86.32;52.75;;;17.20;92.90;;;;;;4951006;28;95229;-44
2023/08/08 06:57:09;;;;;;;85.78;53.75;;;17.20;90.90;;;;;;4953934;28;94808;-47
2023/08/08 06:59:35;;;;;;;84.60;52.80;;;17.20;91.80;;;;;;4963612;28;95189;-46
2023/08/08 07:02:01;;;;;;;88.70;54.22;;;17.20;90.10;;;;;;4955373;28;98636;-45
2023/08/08 07:04:26;;;;;;;90.05;53.58;;;17.30;91.20;;;;;;4958244;28;98024;-45
2023/08/08 07:06:52;;;;;;;90.53;54.70;;;17.30;88.10;;;;;;4962545;28;95020;-45
2023/08/08 07:09:18;;;;;;;88.35;53.75;;;17.40;91.50;;;;;;4958601;28;99157;-46
2023/08/08 07:11:44;;;;;;;88.45;54.40;;;17.40;89.20;;;;;;4970084;28;95946;-46
2023/08/08 07:14:09;;;;;;;88.00;53.80;;;17.50;91.40;;;;;;4961460;28;95602;-45
2023/08/08 07:16:35;;;;;;;91.32;54.30;;;17.50;91.00;;;;;;4968752;28;95351;-46
2023/08/08 07:19:00;;;;;;;88.47;54.55;;;17.50;91.90;;;;;;4958176;28;95464;-47
2023/08/08 07:21:26;;;;;;;91.18;54.10;;;17.60;91.80;;;;;;4961757;28;96308;-46
2023/08/08 07:23:52;;;;;;;87.70;53.90;;;17.70;90.80;;;;;;4959506;28;95207;-46
2023/08/08 07:26:17;;;;;;;90.18;54.00;;;17.70;89.90;;;;;;4962243;28;94457;-46
2023/08/08 07:28:43;;;;;;;88.15;53.75;;;17.80;91.60;;;;;;4961127;28;98084;-44
2023/08/08 07:31:08;;;;;;;89.70;53.80;;;17.90;91.20;;;;;;4963978;28;101245;-45
2023/08/08 07:33:34;;;;;;;90.00;54.10;;;17.90;89.40;;;;;;4959709;28;97966;-47
2023/08/08 07:36:00;;;;;;;87.32;53.38;;;17.90;90.50;;;;;;4964669;28;97101;-45
2023/08/08 07:38:25;;;;;;;87.60;53.35;;;18.00;87.90;;;;;;4966412;28;94779;-44
2023/08/08 07:40:51;;;;;;;86.95;53.70;;;18.00;90.50;;;;;;4964048;28;95197;-46
2023/08/08 07:43:17;;;;;;;87.35;53.75;;;18.00;86.50;;;;;;4971744;28;96084;-44
2023/08/08 07:45:43;;;;;;;89.85;53.45;;;18.00;89.50;;;;;;4956316;28;95798;-44
2023/08/08 07:48:08;;;;;;;87.95;53.97;;;18.00;88.50;;;;;;4959430;28;95793;-44
2023/08/08 07:50:34;;;;;;;88.70;54.08;;;18.10;88.80;;;;;;4958194;28;96517;-47
2023/08/08 07:52:59;;;;;;;87.10;53.05;;;18.10;89.70;;;;;;4953898;28;95343;-46
2023/08/08 07:55:25;;;;;;;85.80;53.47;;;18.10;87.60;;;;;;4957027;28;98607;-46
2023/08/08 07:57:51;;;;;;;87.88;53.45;;;18.20;87.40;;;;;;4963810;28;98673;-45
2023/08/08 08:00:18;;;;;;;88.32;53.65;;;18.20;86.50;;;;;;4957380;28;94710;-45
2023/08/08 08:02:45;;;;;;;84.93;53.28;;;18.20;86.70;;;;;;4962906;28;95278;-46
2023/08/08 08:05:11;;;;;;;87.70;53.45;;;18.20;84.50;;;;;;4969970;28;98758;-48
2023/08/08 08:07:38;;;;;;;91.00;53.30;;;18.20;85.80;;;;;;4968755;28;97702;-48
2023/08/08 08:10:05;;;;;;;86.95;53.28;;;18.30;86.80;;;;;;4953133;28;98383;-48
2023/08/08 08:12:32;;;;;;;85.43;52.88;;;18.30;86.60;;;;;;4955032;28;96248;-48
2023/08/08 08:14:58;;;;;;;86.68;53.33;;;18.30;84.80;;;;;;4953635;28;99207;-47
2023/08/08 08:17:23;;;;;;;85.47;53.28;;;18.40;85.00;;;;;;4966688;28;95294;-46
2023/08/08 08:19:51;;;;;;;86.47;53.13;;;18.50;85.90;;;;;;4965544;28;98981;-46
2023/08/08 08:22:17;;;;;;;84.38;53.28;;;18.50;84.90;;;;;;4969227;28;96293;-48
2023/08/08 08:24:42;;;;;;;85.80;53.03;;;18.50;84.90;;;;;;4954662;28;96327;-46
2023/08/08 08:27:08;;;;;;;86.30;53.33;;;18.50;84.70;;;;;;4965734;28;96421;-45
2023/08/08 08:29:34;;;;;;;84.57;52.95;;;18.60;86.60;;;;;;4952806;28;97958;-47
2023/08/08 08:31:59;;;;;;;83.97;52.90;;;18.60;84.50;;;;;;4958866;28;94818;-46
2023/08/08 08:34:25;;;;;;;84.72;53.15;;;18.60;85.20;;;;;;4955919;28;98162;-49
2023/08/08 08:36:51;;;;;;;84.50;53.05;;;18.70;85.30;;;;;;4960953;28;94815;-49
2023/08/08 08:39:16;;;;;;;85.35;52.95;;;18.70;84.90;;;;;;4955492;28;96976;-45
2023/08/08 08:41:46;;;;;;;87.32;53.20;;;18.70;84.10;;;;;;4955046;28;95222;-46
2023/08/08 08:44:13;;;;;;;84.90;53.08;;;18.70;84.10;;;;;;4957791;28;94869;-46
2023/08/08 08:46:40;;;;;;;83.22;52.75;;;18.80;83.20;;;;;;4959668;28;96957;-46
2023/08/08 08:49:08;;;;;;;84.68;52.72;;;18.80;83.50;;;;;;4962750;28;98727;-47
2023/08/08 08:51:35;;;;;;;86.47;53.40;;;18.80;83.30;;;;;;4954668;28;96013;-48
2023/08/08 08:54:00;;;;;;;85.05;52.97;;;18.90;82.80;;;;;;4959852;28;94935;-47
2023/08/08 08:56:27;;;;;;;88.80;53.08;;;18.90;85.00;;;;;;4959445;28;95171;-48
2023/08/08 08:58:52;;;;;;;85.45;52.85;;;18.90;82.70;;;;;;4952391;28;97143;-47
2023/08/08 09:01:18;;;;;;;87.28;53.25;;;19.00;77.10;;;;;;4949173;28;94645;-46
2023/08/08 09:03:45;;;;;;;90.80;53.65;;;19.30;77.40;;;;;;4954569;28;95211;-47
2023/08/08 09:06:12;;;;;;;86.53;53.28;;;19.50;75.30;;;;;;4958142;28;95826;-49
2023/08/08 09:08:37;;;;;;;88.05;53.80;;;19.60;73.20;;;;;;4956487;28;94799;-45
2023/08/08 09:11:03;;;;;;;86.95;53.33;;;19.60;73.90;;;;;;4966037;28;96205;-47
2023/08/08 09:13:38;;;;;;;87.60;53.55;;;19.60;70.40;;;;;;4955982;28;96611;-49
2023/08/08 09:16:08;;;;;;;87.43;53.38;;;19.70;70.70;;;;;;4958978;28;94765;-48
2023/08/08 09:18:38;;;;;;;85.57;53.47;;;19.80;69.00;;;;;;4959963;28;94652;-47
2023/08/08 09:21:04;;;;;;;89.03;53.40;;;19.70;68.60;;;;;;4961163;28;95082;-46
2023/08/08 09:23:30;;;;;;;88.75;53.90;;;19.80;71.10;;;;;;4955410;28;98317;-46
2023/08/08 09:25:55;;;;;;;88.80;53.55;;;19.70;71.40;;;;;;4960620;28;95100;-44
2023/08/08 09:28:21;;;;;;;85.45;53.00;;;19.70;70.30;;;;;;4956187;28;95927;-45
2023/08/08 09:30:47;;;;;;;86.68;53.03;;;19.60;70.00;;;;;;4948756;28;98294;-47
2023/08/08 09:33:12;;;;;;;84.15;52.40;;;19.50;70.80;;;;;;4954631;28;95863;-48
2023/08/08 09:35:39;;;;;;;87.45;52.78;;;19.40;69.20;;;;;;4945373;28;97592;-48
2023/08/08 09:38:04;;;;;;;86.03;52.85;;;19.40;71.20;;;;;;4945776;28;99151;-45
2023/08/08 09:40:31;;;;;;;84.40;53.05;;;19.30;69.40;;;;;;4969207;28;97949;-45
2023/08/08 09:42:56;;;;;;;85.97;53.30;;;19.30;69.80;;;;;;4955173;28;96871;-48
2023/08/08 09:45:23;;;;;;;85.32;53.20;;;19.30;72.00;;;;;;4964587;28;98164;-48
2023/08/08 09:47:50;;;;;;;83.97;52.85;;;19.30;70.50;;;;;;4945469;28;98640;-46
2023/08/08 09:50:16;;;;;;;85.93;52.85;;;19.20;70.50;;;;;;4940668;28;95245;-44
2023/08/08 09:52:44;;;;;;;85.68;52.50;;;19.20;72.30;;;;;;4952041;28;94389;-48
2023/08/08 09:55:11;;;;;;;83.68;52.42;;;19.10;70.20;;;;;;4942854;28;95742;-47
2023/08/08 09:57:39;;;;;;;83.85;52.63;;;19.10;78.30;;;;;;4945967;28;95689;-47
2023/08/08 10:00:15;;;;;;;85.22;52.75;;;19.10;79.50;;;;;;4947611;28;100350;-44
2023/08/08 10:02:45;;;;;;;83.35;52.53;;;19.10;80.50;;;;;;4955871;28;96363;-45
2023/08/08 10:05:13;;;;;;;83.30;52.67;;;19.10;81.20;;;;;;4945205;28;95879;-45
2023/08/08 10:07:40;;;;;;;84.70;52.65;;;19.10;81.70;;;;;;4944802;28;96541;-46
2023/08/08 10:10:08;;;;;;;84.80;52.92;;;19.20;80.90;;;;;;4954439;28;102418;-45
2023/08/08 10:12:33;;;;;;;85.00;53.15;;;19.20;81.50;;;;;;4955000;28;99509;-46
2023/08/08 10:15:00;;;;;;;84.95;52.95;;;19.20;81.40;;;;;;4957361;28;102206;-48
2023/08/08 10:17:25;;;;;;;85.65;52.70;;;19.30;81.40;;;;;;4946036;28;99523;-47
2023/08/08 10:19:55;;;;;;;84.40;53.03;;;19.40;81.20;;;;;;4944925;28;97482;-45
2023/08/08 10:22:25;;;;;;;84.18;53.22;;;19.40;80.70;;;;;;4951248;28;96567;-47
2023/08/08 10:24:53;;;;;;;83.50;52.83;;;19.50;80.80;;;;;;4943775;28;98394;-49
2023/08/08 10:27:39;;;;;;;84.97;53.00;;;19.50;80.60;;;;;;4945367;28;94410;-45
2023/08/08 10:30:09;;;;;;;86.63;53.05;;;19.60;80.50;;;;;;4954497;28;96405;-49
2023/08/08 10:32:46;;;;;;;84.90;53.22;;;19.60;80.20;;;;;;4949431;28;94969;-45
2023/08/08 10:35:12;;;;;;;86.88;53.63;;;19.70;80.00;;;;;;4956962;28;94334;-44
2023/08/08 10:37:39;;;;;;;85.07;53.30;;;19.70;79.80;;;;;;4943986;28;98202;-48
2023/08/08 10:40:07;;;;;;;85.95;53.45;;;19.80;79.90;;;;;;4941939;28;100369;-47
2023/08/08 10:42:41;;;;;;;85.60;53.10;;;19.80;79.30;;;;;;4951706;28;95474;-45
2023/08/08 10:45:15;;;;;;;86.03;52.83;;;19.90;80.00;;;;;;4964677;28;98975;-49
2023/08/08 10:47:42;;;;;;;84.63;53.10;;;19.90;79.90;;;;;;4947354;28;99298;-46
2023/08/08 10:50:13;;;;;;;84.30;53.13;;;19.90;79.90;;;;;;4947545;28;96343;-45
2023/08/08 10:52:54;;;;;;;87.30;53.25;;;19.90;79.80;;;;;;4957149;28;98778;-44
2023/08/08 10:55:20;;;;;;;84.43;52.80;;;19.90;80.60;;;;;;4953022;28;98569;-44
2023/08/08 10:58:04;;;;;;;85.78;53.33;;;19.90;80.30;;;;;;4952043;28;107208;-45
2023/08/08 11:00:35;;;;;;;84.00;53.00;;;20.00;79.90;;;;;;4946143;28;102068;-47
2023/08/08 11:03:04;;;;;;;84.35;53.03;;;20.00;80.00;;;;;;4949406;28;97322;-46
2023/08/08 11:05:31;;;;;;;85.53;53.35;;;20.10;79.80;;;;;;4955045;28;94669;-49
2023/08/08 11:07:58;;;;;;;88.05;53.22;;;20.20;79.60;;;;;;4970055;28;96016;-47
2023/08/08 11:10:30;;;;;;;85.40;53.38;;;20.20;79.90;;;;;;4965554;28;94954;-47
2023/08/08 11:13:04;;;;;;;85.28;53.17;;;20.20;79.50;;;;;;4972714;28;95041;-46
2023/08/08 11:15:32;;;;;;;85.40;53.40;;;20.30;79.00;;;;;;4972004;28;98830;-46
2023/08/08 11:18:01;;;;;;;86.63;53.20;;;20.30;79.20;;;;;;4971183;28;94859;-47
2023/08/08 11:20:31;;;;;;;86.75;53.20;;;20.40;79.80;;;;;;4967011;28;95533;-45
2023/08/08 11:22:57;;;;;;;84.93;53.40;;;20.30;79.30;;;;;;4966945;28;96020;-47
2023/08/08 11:25:27;;;;;;;86.93;53.55;;;20.30;79.10;;;;;;4968661;28;94720;-45
2023/08/08 11:27:53;;;;;;;84.93;53.33;;;20.30;79.00;;;;;;4958153;28;94614;-44
2023/08/08 11:30:21;;;;;;;85.18;53.47;;;20.40;78.70;;;;;;4944608;28;101670;-44
2023/08/08 11:32:50;;;;;;;85.80;53.22;;;20.50;78.80;;;;;;4943630;28;97097;-44
2023/08/08 11:35:22;;;;;;;86.35;53.72;;;20.50;78.40;;;;;;4966884;28;94773;-46
2023/08/08 11:37:49;;;;;;;85.68;53.40;;;20.60;78.50;;;;;;4958864;28;96025;-48
2023/08/08 11:40:15;;;;;;;86.65;53.67;;;20.70;78.50;;;;;;4940957;28;95828;-49
2023/08/08 11:42:42;;;;;;;88.30;53.47;;;20.70;78.70;;;;;;4947902;28;96773;-49
2023/08/08 11:45:11;;;;;;;85.45;53.58;;;20.70;78.60;;;;;;4948051;28;96716;-45
2023/08/08 11:47:38;;;;;;;86.18;53.72;;;20.70;78.50;;;;;;4958156;28;94949;-44
2023/08/08 11:50:09;;;;;;;86.22;53.80;;;20.80;77.90;;;;;;4948344;28;106202;-47
2023/08/08 11:52:42;;;;;;;86.05;53.85;;;20.80;77.90;;;;;;4944808;28;98749;-47
2023/08/08 11:55:09;;;;;;;86.68;54.08;;;20.80;77.70;;;;;;4958232;28;95250;-48
2023/08/08 11:57:39;;;;;;;87.00;54.17;;;20.90;77.70;;;;;;4965257;28;93967;-48
2023/08/08 12:00:10;;;;;;;88.30;54.25;;;21.00;77.50;;;;;;4944221;28;95977;-46
2023/08/08 12:02:36;;;;;;;86.93;53.95;;;21.00;77.70;;;;;;4944118;28;96756;-46
2023/08/08 12:05:11;;;;;;;87.65;53.90;;;21.00;77.70;;;;;;4946005;28;97592;-47
2023/08/08 12:07:37;;;;;;;87.20;53.53;;;21.00;77.80;;;;;;4969704;28;95644;-47
2023/08/08 12:10:04;;;;;;;85.35;53.40;;;21.00;77.80;;;;;;4954926;28;97190;-43
2023/08/08 12:12:35;;;;;;;86.93;53.67;;;21.00;77.70;;;;;;4948356;28;101053;-44
2023/08/08 12:15:06;;;;;;;85.45;53.63;;;21.10;77.30;;;;;;4944476;28;97417;-47
2023/08/08 12:17:32;;;;;;;87.05;53.85;;;21.10;77.30;;;;;;4950835;28;96627;-49
2023/08/08 12:20:03;;;;;;;85.68;53.65;;;21.10;77.10;;;;;;4955652;28;100254;-45
2023/08/08 12:22:29;;;;;;;85.32;53.55;;;21.10;77.10;;;;;;4944978;28;94629;-44
2023/08/08 12:24:54;;;;;;;85.65;53.67;;;21.20;77.10;;;;;;4942252;28;98745;-46